Time;durP1;ratioP1;P1;durP2;ratioP2;P2;SDS_P1;SDS_P2;PMS_P1;PMS_P2;Temp;Humidity;BMP_temperature;BMP_pressure;BME280_temperature;BME280_humidity;BME280_pressure;Samples;Min_cycle;Max_cycle;Signal;HPM_P1;HPM_P2
2023/10/28 00:00:45;;;;;;;10.20;9.30;;;10.70;99.90;;;;;;5108437;28;20213;-67
2023/10/28 00:03:12;;;;;;;10.27;9.37;;;10.70;99.90;;;;;;5108249;28;20305;-67
2023/10/28 00:05:38;;;;;;;10.80;9.70;;;10.70;99.90;;;;;;5108803;28;20210;-67
2023/10/28 00:08:07;;;;;;;9.50;8.63;;;10.70;99.90;;;;;;5108459;28;20223;-67
2023/10/28 00:10:35;;;;;;;11.07;9.97;;;10.70;99.90;;;;;;5108646;28;20206;-67
2023/10/28 00:13:02;;;;;;;11.53;9.43;;;10.70;99.90;;;;;;5108852;28;20229;-67
2023/10/28 00:15:29;;;;;;;10.80;9.90;;;10.70;99.90;;;;;;5107875;28;20245;-67
2023/10/28 00:17:57;;;;;;;10.53;9.53;;;10.70;99.90;;;;;;5102347;28;20755;-67
2023/10/28 00:20:24;;;;;;;11.10;10.00;;;10.70;99.90;;;;;;5106026;28;20224;-67
2023/10/28 00:22:53;;;;;;;11.10;10.00;;;10.70;99.90;;;;;;5107788;28;20216;-67
2023/10/28 00:25:23;;;;;;;11.30;10.20;;;10.70;99.90;;;;;;5108190;28;20206;-67
2023/10/28 00:27:50;;;;;;;11.90;10.27;;;10.70;99.90;;;;;;5089035;28;20230;-67
2023/10/28 00:30:17;;;;;;;12.03;10.73;;;10.70;99.90;;;;;;5087766;28;20707;-67
2023/10/28 00:32:44;;;;;;;11.33;10.20;;;10.70;99.90;;;;;;5101446;28;20245;-67
2023/10/28 00:35:11;;;;;;;11.80;10.70;;;10.70;99.90;;;;;;5107779;28;20293;-67
2023/10/28 00:37:39;;;;;;;11.10;10.00;;;10.70;99.90;;;;;;5107380;28;20240;-67
2023/10/28 00:40:07;;;;;;;12.57;10.40;;;10.70;99.90;;;;;;5108343;27;20304;-67
2023/10/28 00:42:36;;;;;;;11.57;10.37;;;10.70;99.90;;;;;;5107697;28;20216;-67
2023/10/28 00:45:03;;;;;;;16.57;10.50;;;10.70;99.90;;;;;;5108064;28;20207;-67
2023/10/28 00:47:31;;;;;;;12.17;10.97;;;10.70;99.90;;;;;;5088198;28;20317;-66
2023/10/28 00:49:58;;;;;;;12.03;10.83;;;10.70;99.90;;;;;;5087190;28;20218;-66
2023/10/28 00:52:26;;;;;;;12.50;10.70;;;10.70;99.90;;;;;;5086963;28;20227;-66
2023/10/28 00:54:54;;;;;;;12.03;10.20;;;10.70;99.90;;;;;;5087077;28;20289;-66
2023/10/28 00:57:21;;;;;;;11.20;10.10;;;10.70;99.90;;;;;;5086992;28;20230;-66
2023/10/28 00:59:49;;;;;;;13.47;10.50;;;10.70;99.90;;;;;;5087058;28;20238;-66
2023/10/28 01:02:17;;;;;;;11.60;10.40;;;10.70;99.90;;;;;;5087583;28;20289;-66
2023/10/28 01:04:44;;;;;;;12.33;10.33;;;10.70;99.90;;;;;;5105445;28;20210;-66
2023/10/28 01:07:12;;;;;;;11.60;10.50;;;10.70;99.90;;;;;;5103388;28;20230;-66
2023/10/28 01:09:46;;;;;;;12.67;11.20;;;10.70;99.90;;;;;;5086825;28;20213;-66
2023/10/28 01:12:13;;;;;;;11.97;10.50;;;10.70;99.90;;;;;;5087335;28;20219;-66
2023/10/28 01:14:40;;;;;;;11.87;10.50;;;10.70;99.90;;;;;;5088162;28;20203;-66
2023/10/28 01:17:09;;;;;;;11.47;10.37;;;10.70;99.90;;;;;;5107007;28;20204;-66
2023/10/28 01:19:36;;;;;;;11.40;10.30;;;10.70;99.90;;;;;;5107168;28;20202;-66
2023/10/28 01:22:05;;;;;;;10.57;9.63;;;10.70;99.90;;;;;;5107107;28;20922;-66
2023/10/28 01:24:34;;;;;;;10.90;9.90;;;10.70;99.90;;;;;;5107199;28;20209;-67
2023/10/28 01:27:01;;;;;;;11.43;10.33;;;10.70;99.90;;;;;;5101183;28;20255;-67
2023/10/28 01:29:29;;;;;;;10.50;9.53;;;10.70;99.90;;;;;;5106782;28;20716;-66
2023/10/28 01:31:56;;;;;;;10.40;9.40;;;10.70;99.90;;;;;;5106958;28;20276;-66
2023/10/28 01:34:23;;;;;;;10.93;9.83;;;10.70;99.90;;;;;;5106078;28;20572;-66
2023/10/28 01:36:50;;;;;;;10.80;9.47;;;10.70;99.90;;;;;;5106590;27;20230;-66
2023/10/28 01:39:18;;;;;;;10.60;9.30;;;10.70;99.90;;;;;;5106716;28;20629;-66
2023/10/28 01:41:45;;;;;;;10.20;9.30;;;10.70;99.90;;;;;;5107280;28;20301;-66
2023/10/28 01:44:14;;;;;;;10.20;9.20;;;10.70;99.90;;;;;;5107219;28;20274;-66
2023/10/28 01:46:41;;;;;;;10.20;9.30;;;10.70;99.90;;;;;;5106821;28;20209;-66
2023/10/28 01:49:08;;;;;;;10.50;8.73;;;10.70;99.90;;;;;;5106024;28;20300;-66
2023/10/28 01:51:35;;;;;;;9.57;8.67;;;10.70;99.90;;;;;;5086800;28;20289;-66
2023/10/28 01:54:02;;;;;;;9.40;8.50;;;10.70;99.90;;;;;;5086631;28;20298;-66
2023/10/28 01:56:30;;;;;;;8.93;8.13;;;10.70;99.90;;;;;;5086328;28;20242;-66
2023/10/28 01:58:57;;;;;;;8.97;8.17;;;10.70;99.90;;;;;;5090250;28;20199;-66
2023/10/28 02:01:25;;;;;;;8.43;7.70;;;10.70;99.90;;;;;;5090345;28;20672;-67
2023/10/28 02:03:53;;;;;;;11.40;7.37;;;10.70;99.90;;;;;;5085708;28;20207;-67
2023/10/28 02:06:20;;;;;;;7.73;7.03;;;10.70;99.90;;;;;;5106423;28;20920;-66
2023/10/28 02:08:48;;;;;;;8.17;7.47;;;10.70;99.90;;;;;;5106298;28;20222;-66
2023/10/28 02:11:15;;;;;;;7.97;7.17;;;10.70;99.90;;;;;;5106404;28;20645;-66
2023/10/28 02:13:43;;;;;;;7.57;6.97;;;10.70;99.90;;;;;;5105795;28;20329;-66
2023/10/28 02:16:10;;;;;;;7.63;7.00;;;10.70;99.90;;;;;;5095018;28;20314;-66
2023/10/28 02:18:37;;;;;;;7.63;6.97;;;10.70;99.90;;;;;;5085544;28;20295;-66
2023/10/28 02:21:04;;;;;;;7.13;6.53;;;10.70;99.90;;;;;;5086727;28;20299;-66
2023/10/28 02:23:31;;;;;;;6.87;6.27;;;10.60;99.90;;;;;;5085489;28;20214;-66
2023/10/28 02:25:58;;;;;;;6.40;5.90;;;10.70;99.90;;;;;;5086325;28;20317;-66
2023/10/28 02:28:25;;;;;;;6.03;5.53;;;10.60;99.90;;;;;;5087980;28;20293;-66
2023/10/28 02:30:53;;;;;;;6.83;6.13;;;10.60;99.90;;;;;;5105669;28;20325;-66
2023/10/28 02:33:20;;;;;;;6.63;6.03;;;10.60;99.90;;;;;;5102541;28;20321;-67
2023/10/28 02:35:47;;;;;;;5.80;5.37;;;10.70;99.90;;;;;;5105700;28;20212;-67
2023/10/28 02:38:15;;;;;;;6.10;5.60;;;10.70;99.90;;;;;;5100280;28;20199;-67
2023/10/28 02:40:46;;;;;;;5.83;5.43;;;10.70;99.90;;;;;;5085695;28;20210;-66
2023/10/28 02:43:14;;;;;;;5.20;4.80;;;10.70;99.90;;;;;;5085452;28;20252;-66
2023/10/28 02:45:41;;;;;;;5.57;5.17;;;10.70;99.90;;;;;;5084970;28;20213;-66
2023/10/28 02:48:09;;;;;;;5.50;5.10;;;10.60;99.90;;;;;;5085296;28;20297;-67
2023/10/28 02:50:37;;;;;;;5.27;4.87;;;10.60;99.90;;;;;;5097967;28;20216;-67
2023/10/28 02:53:04;;;;;;;5.37;4.97;;;10.70;99.90;;;;;;5105812;28;20233;-67
2023/10/28 02:55:31;;;;;;;5.67;5.23;;;10.70;99.90;;;;;;5105212;28;20718;-67
2023/10/28 02:57:57;;;;;;;6.33;5.57;;;10.60;99.90;;;;;;5105725;28;20202;-67
2023/10/28 03:00:24;;;;;;;5.43;5.03;;;10.60;99.90;;;;;;5091838;28;20214;-66
2023/10/28 03:02:52;;;;;;;6.13;5.63;;;10.60;99.90;;;;;;5087592;28;20209;-66
2023/10/28 03:05:22;;;;;;;5.70;5.30;;;10.60;99.90;;;;;;5105321;28;20234;-66
2023/10/28 03:07:50;;;;;;;6.07;5.57;;;10.50;99.90;;;;;;5105087;28;20234;-67
2023/10/28 03:10:16;;;;;;;5.50;5.10;;;10.60;99.90;;;;;;5105499;28;20206;-66
2023/10/28 03:12:44;;;;;;;6.40;5.80;;;10.60;99.90;;;;;;5105139;28;20234;-66
2023/10/28 03:15:12;;;;;;;5.33;4.83;;;10.60;99.90;;;;;;5105473;28;20210;-66
2023/10/28 03:17:39;;;;;;;5.77;4.90;;;10.60;99.90;;;;;;5105025;28;20664;-67
2023/10/28 03:20:08;;;;;;;4.93;4.53;;;10.50;99.90;;;;;;5105455;28;20216;-67
2023/10/28 03:22:37;;;;;;;4.93;4.53;;;10.50;99.90;;;;;;5104698;28;20210;-67
2023/10/28 03:25:04;;;;;;;4.47;4.17;;;10.50;99.90;;;;;;5105251;28;20297;-66
2023/10/28 03:27:32;;;;;;;4.87;4.57;;;10.50;99.90;;;;;;5100817;28;20237;-66
2023/10/28 03:29:59;;;;;;;4.40;4.10;;;10.50;99.90;;;;;;5105515;28;20213;-66
2023/10/28 03:32:26;;;;;;;4.70;4.17;;;10.50;99.90;;;;;;5103162;28;20222;-66
2023/10/28 03:34:53;;;;;;;4.10;3.80;;;10.50;99.90;;;;;;5096997;28;20230;-66
2023/10/28 03:37:20;;;;;;;3.97;3.63;;;10.50;99.90;;;;;;5084872;28;20273;-67
2023/10/28 03:39:48;;;;;;;3.77;3.47;;;10.40;99.90;;;;;;5084902;28;20602;-66
2023/10/28 03:42:15;;;;;;;4.47;4.07;;;10.40;99.90;;;;;;5085351;28;20218;-66
2023/10/28 03:44:42;;;;;;;3.77;3.57;;;10.40;99.90;;;;;;5084397;28;20207;-66
2023/10/28 03:47:09;;;;;;;3.93;3.63;;;10.40;99.90;;;;;;5084649;28;20297;-66
2023/10/28 03:49:36;;;;;;;3.93;3.63;;;10.40;99.90;;;;;;5084261;28;20216;-66
2023/10/28 03:52:03;;;;;;;3.90;3.60;;;10.40;99.90;;;;;;5084669;28;20207;-66
2023/10/28 03:54:30;;;;;;;3.90;3.60;;;10.40;99.90;;;;;;5084536;28;20403;-66
2023/10/28 03:56:59;;;;;;;3.80;3.60;;;10.40;99.90;;;;;;5084667;28;20314;-66
2023/10/28 03:59:26;;;;;;;3.83;3.53;;;10.40;99.90;;;;;;5084340;28;20284;-66
2023/10/28 04:01:53;;;;;;;3.63;3.43;;;10.40;99.90;;;;;;5084541;28;20285;-66
2023/10/28 04:04:20;;;;;;;3.60;3.33;;;10.40;99.90;;;;;;5099270;28;20236;-66
2023/10/28 04:06:47;;;;;;;3.57;3.27;;;10.40;99.90;;;;;;5104461;28;20218;-66
2023/10/28 04:09:14;;;;;;;3.47;3.27;;;10.50;99.90;;;;;;5104586;28;20289;-66
2023/10/28 04:11:41;;;;;;;3.90;3.60;;;10.40;99.90;;;;;;5104794;28;20212;-66
2023/10/28 04:14:10;;;;;;;4.10;3.40;;;10.40;99.90;;;;;;5104306;28;20232;-66
2023/10/28 04:16:37;;;;;;;3.57;3.27;;;10.40;99.90;;;;;;5093948;28;20211;-66
2023/10/28 04:19:03;;;;;;;3.33;3.13;;;10.40;99.90;;;;;;5084594;28;20303;-66
2023/10/28 04:21:30;;;;;;;3.33;3.10;;;10.40;99.90;;;;;;5091658;28;20297;-66
2023/10/28 04:23:57;;;;;;;3.67;3.37;;;10.40;99.90;;;;;;5084299;28;20840;-66
2023/10/28 04:26:24;;;;;;;3.17;2.97;;;10.40;99.90;;;;;;5087748;28;20704;-66
2023/10/28 04:28:51;;;;;;;3.70;3.17;;;10.40;99.90;;;;;;5088250;28;20213;-66
2023/10/28 04:31:19;;;;;;;2.73;2.50;;;10.40;99.90;;;;;;5088042;28;20610;-66
2023/10/28 04:33:46;;;;;;;3.10;2.90;;;10.40;99.90;;;;;;5098342;28;20233;-67
2023/10/28 04:36:14;;;;;;;3.50;3.20;;;10.40;99.90;;;;;;5108236;28;20242;-67
2023/10/28 04:38:41;;;;;;;3.40;3.20;;;10.30;99.90;;;;;;5103075;28;20747;-67
2023/10/28 04:41:09;;;;;;;2.90;2.70;;;10.30;99.90;;;;;;5107956;28;20202;-67
2023/10/28 04:43:36;;;;;;;2.90;2.77;;;10.30;99.90;;;;;;5108073;28;20210;-67
2023/10/28 04:46:04;;;;;;;3.07;2.63;;;10.30;99.90;;;;;;5107806;28;20231;-67
2023/10/28 04:48:33;;;;;;;2.80;2.67;;;10.30;99.90;;;;;;5108180;28;20213;-67
2023/10/28 04:51:00;;;;;;;2.67;2.30;;;10.40;99.90;;;;;;5107971;28;20235;-66
2023/10/28 04:53:26;;;;;;;4.50;2.40;;;10.30;99.90;;;;;;5107278;28;20230;-66
2023/10/28 04:55:55;;;;;;;2.93;2.30;;;10.30;99.90;;;;;;5108209;28;20567;-65
2023/10/28 04:58:21;;;;;;;2.60;2.40;;;10.30;99.90;;;;;;5107564;28;20781;-65
2023/10/28 05:00:48;;;;;;;2.27;2.17;;;10.30;99.90;;;;;;5107505;28;20209;-67
2023/10/28 05:03:15;;;;;;;2.50;2.40;;;10.40;99.90;;;;;;5107689;28;20216;-66
2023/10/28 05:05:46;;;;;;;2.30;2.20;;;10.40;99.90;;;;;;5107917;28;20206;-66
2023/10/28 05:08:13;;;;;;;2.40;2.23;;;10.40;99.90;;;;;;5107922;28;20222;-65
2023/10/28 05:10:41;;;;;;;2.70;2.60;;;10.30;99.90;;;;;;5103545;28;20223;-65
2023/10/28 05:13:10;;;;;;;2.77;2.50;;;10.30;99.90;;;;;;5089481;28;20329;-66
2023/10/28 05:15:37;;;;;;;2.47;2.30;;;10.30;99.90;;;;;;5087689;28;20300;-66
2023/10/28 05:18:05;;;;;;;2.27;2.17;;;10.30;99.90;;;;;;5087537;28;20774;-65
2023/10/28 05:20:34;;;;;;;2.23;2.13;;;10.30;99.90;;;;;;5091949;28;20202;-65
2023/10/28 05:23:02;;;;;;;2.37;2.27;;;10.30;99.90;;;;;;5107447;27;20209;-66
2023/10/28 05:25:29;;;;;;;2.20;2.00;;;10.30;99.90;;;;;;5107188;28;20333;-66
2023/10/28 05:27:56;;;;;;;2.20;2.10;;;10.30;99.90;;;;;;5087567;28;20314;-66
2023/10/28 05:30:23;;;;;;;2.13;2.03;;;10.30;99.90;;;;;;5087218;28;20306;-66
2023/10/28 05:32:51;;;;;;;2.30;2.20;;;10.30;99.90;;;;;;5089040;28;20215;-66
2023/10/28 05:35:18;;;;;;;2.13;2.03;;;10.30;99.90;;;;;;5106927;28;20202;-66
2023/10/28 05:37:45;;;;;;;2.37;2.27;;;10.30;99.90;;;;;;5106250;28;20238;-66
2023/10/28 05:40:14;;;;;;;2.40;2.30;;;10.30;99.90;;;;;;5097054;27;20203;-66
2023/10/28 05:42:41;;;;;;;2.13;2.03;;;10.30;99.90;;;;;;5099897;28;20478;-66
2023/10/28 05:45:10;;;;;;;2.10;2.00;;;10.30;99.90;;;;;;5087027;28;20199;-66
2023/10/28 05:47:37;;;;;;;2.57;2.47;;;10.30;99.90;;;;;;5087357;28;20219;-66
2023/10/28 05:50:06;;;;;;;2.43;2.33;;;10.20;99.90;;;;;;5087192;28;20210;-66
2023/10/28 05:52:34;;;;;;;2.53;2.43;;;10.10;99.90;;;;;;5086818;28;20269;-66
2023/10/28 05:55:01;;;;;;;2.40;2.30;;;10.10;99.90;;;;;;5086960;28;20242;-66
2023/10/28 05:57:29;;;;;;;2.60;2.50;;;10.10;99.90;;;;;;5100529;28;20281;-66
2023/10/28 05:59:56;;;;;;;2.80;2.70;;;10.20;99.90;;;;;;5102638;28;20263;-66
2023/10/28 06:02:24;;;;;;;3.00;2.80;;;10.20;99.90;;;;;;5094436;28;20285;-66
2023/10/28 06:04:52;;;;;;;3.47;3.17;;;10.20;99.90;;;;;;5106664;28;20242;-66
2023/10/28 06:07:21;;;;;;;3.27;3.07;;;10.30;99.90;;;;;;5105982;28;20308;-66
2023/10/28 06:09:48;;;;;;;3.07;2.87;;;10.30;99.90;;;;;;5089747;28;20226;-65
2023/10/28 06:12:15;;;;;;;3.00;2.80;;;10.30;99.90;;;;;;5101351;28;20202;-66
2023/10/28 06:14:44;;;;;;;3.10;2.90;;;10.40;99.90;;;;;;5106844;28;20320;-65
2023/10/28 06:17:11;;;;;;;3.27;2.97;;;10.40;99.90;;;;;;5106765;28;20214;-65
2023/10/28 06:19:40;;;;;;;3.23;3.03;;;10.40;99.90;;;;;;5106512;28;20356;-65
2023/10/28 06:22:08;;;;;;;3.43;3.13;;;10.40;99.90;;;;;;5106894;28;20204;-66
2023/10/28 06:24:35;;;;;;;3.57;3.27;;;10.40;99.90;;;;;;5093827;28;20221;-66
2023/10/28 06:27:02;;;;;;;3.20;3.00;;;10.40;99.90;;;;;;5086346;28;20247;-66
2023/10/28 06:29:29;;;;;;;3.57;3.37;;;10.40;99.90;;;;;;5085941;28;20293;-66
2023/10/28 06:31:58;;;;;;;2.90;2.77;;;10.40;99.90;;;;;;5085895;28;20302;-66
2023/10/28 06:34:27;;;;;;;3.30;3.10;;;10.40;99.90;;;;;;5101037;28;20868;-66
2023/10/28 06:36:54;;;;;;;4.20;3.90;;;10.40;99.90;;;;;;5105986;28;20234;-66
2023/10/28 06:39:21;;;;;;;3.47;3.27;;;10.40;99.90;;;;;;5105653;28;20890;-65
2023/10/28 06:41:48;;;;;;;3.47;3.27;;;10.40;99.90;;;;;;5088189;28;20207;-66
2023/10/28 06:44:15;;;;;;;3.83;3.63;;;10.40;99.90;;;;;;5098398;28;20209;-66
2023/10/28 06:46:42;;;;;;;3.53;3.37;;;10.40;99.90;;;;;;5106054;28;20292;-66
2023/10/28 06:49:10;;;;;;;3.87;3.57;;;10.40;99.90;;;;;;5106138;28;20629;-66
2023/10/28 06:51:37;;;;;;;3.90;3.60;;;10.40;99.90;;;;;;5106234;28;20293;-66
2023/10/28 06:54:04;;;;;;;4.10;3.90;;;10.50;99.90;;;;;;5102599;28;20308;-66
2023/10/28 06:56:31;;;;;;;3.70;3.50;;;10.50;99.90;;;;;;5086726;28;20487;-66
2023/10/28 06:58:58;;;;;;;3.70;3.50;;;10.50;99.90;;;;;;5092445;28;20243;-66
2023/10/28 07:01:26;;;;;;;3.13;2.93;;;10.50;99.90;;;;;;5094414;28;20206;-66
2023/10/28 07:03:53;;;;;;;3.03;2.93;;;10.50;99.90;;;;;;5084959;28;20240;-66
2023/10/28 07:06:21;;;;;;;3.70;3.50;;;10.50;99.90;;;;;;5085936;28;20807;-66
2023/10/28 07:08:48;;;;;;;4.00;3.70;;;10.50;99.90;;;;;;5105288;28;20242;-66
2023/10/28 07:11:15;;;;;;;4.00;3.57;;;10.50;99.90;;;;;;5105239;28;20241;-66
2023/10/28 07:13:42;;;;;;;4.80;3.47;;;10.50;99.90;;;;;;5093829;28;20249;-67
2023/10/28 07:16:09;;;;;;;3.70;3.40;;;10.50;99.90;;;;;;5105735;28;20252;-67
2023/10/28 07:18:35;;;;;;;4.20;4.00;;;10.50;99.90;;;;;;5105548;28;20267;-67
2023/10/28 07:21:04;;;;;;;4.40;4.00;;;10.50;99.90;;;;;;5105552;28;20205;-67
2023/10/28 07:23:32;;;;;;;3.90;3.70;;;10.50;99.90;;;;;;5093415;28;20207;-67
2023/10/28 07:26:01;;;;;;;4.50;4.20;;;10.50;99.90;;;;;;5085090;28;20334;-67
2023/10/28 07:28:33;;;;;;;4.93;4.30;;;10.50;99.90;;;;;;5086088;28;20294;-67
2023/10/28 07:31:01;;;;;;;4.10;3.90;;;10.50;99.90;;;;;;5105721;28;20194;-67
2023/10/28 07:33:28;;;;;;;4.53;4.13;;;10.50;99.90;;;;;;5104556;28;20302;-66
2023/10/28 07:35:56;;;;;;;4.37;4.07;;;10.50;99.90;;;;;;5105235;28;20313;-66
2023/10/28 07:38:23;;;;;;;5.03;4.73;;;10.50;99.90;;;;;;5093451;28;20297;-66
2023/10/28 07:40:52;;;;;;;4.70;4.40;;;10.50;99.90;;;;;;5085007;28;20637;-67
2023/10/28 07:43:19;;;;;;;4.47;4.20;;;10.50;99.90;;;;;;5084359;28;20206;-66
2023/10/28 07:45:47;;;;;;;4.90;4.60;;;10.50;99.90;;;;;;5092341;28;20315;-66
2023/10/28 07:48:14;;;;;;;4.80;4.50;;;10.60;99.90;;;;;;5104951;28;20751;-66
2023/10/28 07:50:41;;;;;;;4.90;4.50;;;10.60;99.90;;;;;;5105322;28;20208;-66
2023/10/28 07:53:08;;;;;;;4.57;4.33;;;10.60;99.90;;;;;;5099559;28;20293;-67
2023/10/28 07:55:36;;;;;;;4.53;4.33;;;10.60;99.90;;;;;;5092118;28;20697;-67
2023/10/28 07:58:05;;;;;;;4.67;4.37;;;10.60;99.90;;;;;;5084424;28;20701;-66
2023/10/28 08:00:32;;;;;;;5.30;4.83;;;10.60;99.90;;;;;;5088675;28;20241;-66
2023/10/28 08:03:00;;;;;;;4.77;4.47;;;10.60;99.90;;;;;;5108533;28;20213;-67
2023/10/28 08:05:28;;;;;;;5.20;4.80;;;10.70;99.90;;;;;;5096238;28;20289;-67
2023/10/28 08:07:55;;;;;;;4.93;4.53;;;10.70;99.90;;;;;;5088217;28;20305;-66
2023/10/28 08:10:23;;;;;;;5.43;4.63;;;10.70;99.90;;;;;;5088431;28;20302;-66
2023/10/28 08:12:51;;;;;;;5.20;4.80;;;10.70;99.90;;;;;;5088613;28;20206;-67
2023/10/28 08:15:21;;;;;;;5.03;4.73;;;10.70;99.90;;;;;;5101962;28;20244;-67
2023/10/28 08:17:48;;;;;;;5.53;5.23;;;10.70;99.90;;;;;;5106505;28;20292;-67
2023/10/28 08:20:15;;;;;;;5.27;4.97;;;10.70;99.90;;;;;;5088044;28;20238;-66
2023/10/28 08:22:43;;;;;;;5.93;5.53;;;10.70;99.90;;;;;;5088158;28;20206;-67
2023/10/28 08:25:10;;;;;;;6.53;6.13;;;10.80;99.90;;;;;;5087827;28;20573;-66
2023/10/28 08:27:38;;;;;;;6.57;6.23;;;10.80;99.90;;;;;;5087845;28;21133;-66
2023/10/28 08:30:07;;;;;;;8.03;6.80;;;10.80;99.90;;;;;;5087842;28;20202;-66
2023/10/28 08:32:38;;;;;;;7.23;6.67;;;10.80;99.90;;;;;;5091562;28;20211;-67
2023/10/28 08:35:05;;;;;;;7.47;6.87;;;10.90;99.90;;;;;;5107898;28;20226;-66
2023/10/28 08:37:32;;;;;;;6.97;6.47;;;10.90;99.90;;;;;;5107648;28;20317;-66
2023/10/28 08:40:00;;;;;;;7.80;6.80;;;11.00;99.90;;;;;;5107785;28;20210;-66
2023/10/28 08:42:27;;;;;;;7.93;7.27;;;11.00;99.90;;;;;;5107990;27;20602;-66
2023/10/28 08:44:55;;;;;;;7.80;7.10;;;11.00;99.90;;;;;;5104974;28;20668;-66
2023/10/28 08:47:24;;;;;;;7.50;7.00;;;11.00;99.90;;;;;;5105438;28;20225;-66
2023/10/28 08:49:55;;;;;;;7.80;7.20;;;11.10;99.90;;;;;;5096229;28;20209;-66
2023/10/28 08:52:24;;;;;;;7.83;7.23;;;11.10;99.90;;;;;;5087953;28;20252;-66
2023/10/28 08:54:52;;;;;;;7.70;7.10;;;11.20;99.90;;;;;;5087753;28;20239;-66
2023/10/28 08:57:20;;;;;;;7.30;6.73;;;11.10;99.90;;;;;;5087727;28;20304;-66
2023/10/28 08:59:47;;;;;;;7.60;7.00;;;11.10;99.90;;;;;;5096690;28;20644;-66
2023/10/28 09:02:14;;;;;;;7.37;6.30;;;11.10;99.90;;;;;;5107150;28;20211;-66
2023/10/28 09:04:41;;;;;;;5.90;5.50;;;11.10;99.90;;;;;;5107416;28;20676;-66
2023/10/28 09:07:10;;;;;;;5.57;5.17;;;11.20;99.90;;;;;;5107160;28;20228;-66
2023/10/28 09:09:39;;;;;;;5.37;4.97;;;11.20;99.90;;;;;;5107219;28;20778;-66
2023/10/28 09:12:09;;;;;;;5.43;5.07;;;11.20;99.90;;;;;;5095467;28;20224;-66
2023/10/28 09:14:37;;;;;;;5.50;5.13;;;11.20;99.90;;;;;;5107201;28;20317;-66
2023/10/28 09:17:04;;;;;;;5.10;4.80;;;11.20;99.90;;;;;;5106604;28;20286;-66
2023/10/28 09:19:31;;;;;;;4.93;4.53;;;11.20;99.90;;;;;;5102990;28;20691;-66
2023/10/28 09:22:00;;;;;;;4.90;4.50;;;11.30;99.90;;;;;;5105736;28;20300;-66
2023/10/28 09:24:28;;;;;;;4.97;4.57;;;11.40;99.90;;;;;;5105373;28;20600;-67
2023/10/28 09:26:55;;;;;;;4.60;4.30;;;11.40;99.90;;;;;;5087274;28;20290;-66
2023/10/28 09:29:28;;;;;;;4.63;4.03;;;11.50;99.90;;;;;;5085069;28;20217;-66
2023/10/28 09:32:05;;;;;;;5.10;4.70;;;11.50;99.90;;;;;;5085631;28;20198;-67
2023/10/28 09:34:34;;;;;;;4.97;4.67;;;11.50;99.90;;;;;;5085464;28;20549;-67
2023/10/28 09:37:01;;;;;;;5.63;5.13;;;11.50;99.90;;;;;;5084934;28;20322;-66
2023/10/28 09:39:32;;;;;;;4.87;4.57;;;11.50;99.90;;;;;;5104136;28;20365;-67
2023/10/28 09:42:00;;;;;;;4.50;4.30;;;11.60;99.90;;;;;;5094497;28;20460;-66
2023/10/28 09:44:27;;;;;;;4.93;4.63;;;11.70;99.90;;;;;;5105524;27;20285;-66
2023/10/28 09:47:01;;;;;;;4.93;4.63;;;11.80;99.90;;;;;;5105375;28;20228;-67
2023/10/28 09:49:30;;;;;;;4.57;4.23;;;11.90;99.90;;;;;;5105040;28;20190;-67
2023/10/28 09:52:00;;;;;;;4.20;4.00;;;11.90;99.90;;;;;;5105130;28;20214;-66
2023/10/28 09:54:33;;;;;;;4.67;4.27;;;12.00;99.90;;;;;;5095965;28;20230;-66
2023/10/28 09:57:01;;;;;;;4.63;4.27;;;12.00;99.90;;;;;;5100717;28;20560;-66
2023/10/28 09:59:33;;;;;;;4.50;4.23;;;12.20;99.90;;;;;;5103912;27;20297;-66
2023/10/28 10:02:15;;;;;;;4.10;3.80;;;12.30;99.90;;;;;;5103378;28;20191;-66
2023/10/28 10:04:47;;;;;;;4.17;3.70;;;12.30;99.90;;;;;;5105042;28;20186;-66
2023/10/28 10:07:14;;;;;;;4.30;4.00;;;12.50;99.90;;;;;;5096219;28;20231;-66
2023/10/28 10:09:43;;;;;;;3.70;3.50;;;12.70;99.90;;;;;;5084850;28;20213;-66
2023/10/28 10:12:11;;;;;;;4.23;3.67;;;12.90;99.90;;;;;;5086709;28;20245;-66
2023/10/28 10:14:41;;;;;;;3.93;3.73;;;13.00;99.90;;;;;;5085079;28;20242;-66
2023/10/28 10:17:22;;;;;;;3.83;3.63;;;13.10;99.90;;;;;;5085496;28;20299;-66
2023/10/28 10:19:50;;;;;;;3.70;3.50;;;13.20;99.90;;;;;;5084895;28;20194;-66
2023/10/28 10:22:18;;;;;;;3.50;3.30;;;13.40;99.90;;;;;;5083422;28;20229;-66
2023/10/28 10:24:52;;;;;;;3.77;3.53;;;13.50;99.90;;;;;;5084246;28;20211;-66
2023/10/28 10:27:34;;;;;;;3.40;3.20;;;13.50;99.90;;;;;;5084041;28;20203;-66
2023/10/28 10:30:08;;;;;;;3.37;3.17;;;13.40;99.90;;;;;;5084318;28;20187;-66
2023/10/28 10:32:46;;;;;;;3.13;2.90;;;13.40;99.90;;;;;;5083857;28;20299;-66
2023/10/28 10:35:14;;;;;;;3.30;3.10;;;13.40;99.90;;;;;;5084439;28;20313;-66
2023/10/28 10:37:41;;;;;;;3.60;3.40;;;13.30;99.90;;;;;;5084173;28;20242;-66
2023/10/28 10:40:13;;;;;;;3.70;3.50;;;13.30;99.90;;;;;;5084359;28;20218;-66
2023/10/28 10:42:41;;;;;;;3.50;3.30;;;13.20;99.90;;;;;;5090695;28;20238;-66
2023/10/28 10:45:09;;;;;;;4.00;3.80;;;13.10;99.90;;;;;;5084240;28;20268;-66
2023/10/28 10:47:36;;;;;;;4.03;3.73;;;13.10;99.90;;;;;;5084122;28;20286;-66
2023/10/28 10:50:05;;;;;;;3.80;3.60;;;13.10;99.90;;;;;;5088415;28;20238;-66
2023/10/28 10:52:34;;;;;;;4.33;4.07;;;13.00;99.90;;;;;;5104732;28;20317;-67
2023/10/28 10:55:04;;;;;;;4.80;3.90;;;13.10;99.90;;;;;;5095226;28;20221;-67
2023/10/28 10:57:33;;;;;;;3.83;3.53;;;13.10;99.90;;;;;;5086970;28;20206;-68
2023/10/28 11:00:01;;;;;;;4.03;3.73;;;13.10;99.90;;;;;;5094154;28;20210;-67
2023/10/28 11:02:28;;;;;;;3.67;3.47;;;13.20;99.90;;;;;;5093733;28;20675;-67
2023/10/28 11:04:58;;;;;;;4.47;3.30;;;13.20;99.90;;;;;;5095707;28;20292;-66
2023/10/28 11:07:25;;;;;;;4.30;3.43;;;13.20;99.90;;;;;;5099028;28;20573;-67
2023/10/28 11:09:52;;;;;;;3.73;3.53;;;13.20;99.90;;;;;;5101601;28;20205;-66
2023/10/28 11:12:23;;;;;;;3.43;3.23;;;13.20;99.90;;;;;;5092915;28;20296;-67
2023/10/28 11:14:54;;;;;;;4.20;3.80;;;13.10;99.90;;;;;;5104940;28;20303;-67
2023/10/28 11:17:21;;;;;;;3.87;3.67;;;13.10;99.90;;;;;;5089152;28;20207;-66
2023/10/28 11:19:49;;;;;;;3.63;3.43;;;13.00;99.90;;;;;;5098587;28;20718;-66
2023/10/28 11:22:17;;;;;;;3.47;3.27;;;12.90;99.90;;;;;;5086025;28;20194;-66
2023/10/28 11:24:44;;;;;;;3.53;3.33;;;12.90;99.90;;;;;;5093234;28;20202;-66
2023/10/28 11:27:19;;;;;;;3.50;3.30;;;12.90;99.90;;;;;;5105146;28;20764;-67
2023/10/28 11:29:46;;;;;;;3.67;3.40;;;12.80;99.90;;;;;;5104219;28;20204;-66
2023/10/28 11:32:14;;;;;;;3.50;3.30;;;12.70;99.90;;;;;;5090246;28;20202;-66
2023/10/28 11:34:43;;;;;;;3.63;3.33;;;12.70;99.90;;;;;;5103271;28;20208;-66
2023/10/28 11:37:11;;;;;;;4.00;3.80;;;12.70;99.90;;;;;;5098902;28;20230;-66
2023/10/28 11:39:37;;;;;;;3.67;3.47;;;12.60;99.90;;;;;;5098144;28;20305;-65
2023/10/28 11:42:11;;;;;;;4.07;3.77;;;12.60;99.90;;;;;;5095393;28;20293;-66
2023/10/28 11:44:38;;;;;;;4.03;3.73;;;12.60;99.90;;;;;;5095712;28;20744;-66
2023/10/28 11:47:06;;;;;;;4.20;3.80;;;12.50;99.90;;;;;;5097842;28;20210;-66
2023/10/28 11:49:34;;;;;;;3.30;3.10;;;12.50;99.90;;;;;;5105102;28;20288;-66
2023/10/28 11:52:01;;;;;;;3.57;3.37;;;12.50;99.90;;;;;;5091195;28;20293;-66
2023/10/28 11:54:28;;;;;;;3.60;3.40;;;12.40;99.90;;;;;;5088063;28;20644;-66
2023/10/28 11:56:55;;;;;;;3.63;3.43;;;12.40;99.90;;;;;;5101118;28;20711;-66
2023/10/28 11:59:22;;;;;;;3.77;3.40;;;12.40;99.90;;;;;;5091443;28;20305;-66
2023/10/28 12:01:50;;;;;;;4.20;3.90;;;12.40;99.90;;;;;;5102215;28;20213;-69
2023/10/28 12:04:17;;;;;;;4.17;3.93;;;12.40;99.90;;;;;;5097664;28;20213;-68
2023/10/28 12:06:45;;;;;;;5.43;4.20;;;12.40;99.90;;;;;;5106745;28;20700;-66
2023/10/28 12:09:13;;;;;;;4.13;3.93;;;12.40;99.90;;;;;;5090122;28;20639;-66
2023/10/28 12:11:39;;;;;;;4.27;3.93;;;12.40;99.90;;;;;;5095471;28;20213;-66
2023/10/28 12:14:07;;;;;;;4.80;4.50;;;12.40;99.90;;;;;;5095521;28;20289;-66
2023/10/28 12:16:37;;;;;;;4.50;4.20;;;12.50;99.90;;;;;;5092304;28;20315;-66
2023/10/28 12:19:05;;;;;;;4.67;4.27;;;12.50;99.90;;;;;;5098535;28;20238;-66
2023/10/28 12:21:32;;;;;;;4.50;4.20;;;12.50;99.90;;;;;;5105517;28;20202;-66
2023/10/28 12:24:00;;;;;;;5.00;4.57;;;12.50;99.90;;;;;;5102763;28;20654;-66
2023/10/28 12:26:27;;;;;;;4.57;4.23;;;12.60;99.90;;;;;;5097900;28;20414;-66
2023/10/28 12:28:54;;;;;;;5.83;4.33;;;12.50;99.90;;;;;;5100563;28;20245;-66
2023/10/28 12:31:23;;;;;;;4.50;4.13;;;12.60;99.90;;;;;;5103030;28;20897;-64
2023/10/28 12:33:50;;;;;;;4.27;4.00;;;12.60;99.90;;;;;;5089633;28;20206;-65
2023/10/28 12:36:17;;;;;;;3.87;3.67;;;12.70;99.90;;;;;;5103403;28;20344;-65
2023/10/28 12:38:45;;;;;;;4.17;3.87;;;12.70;99.90;;;;;;5102156;28;20207;-66
2023/10/28 12:41:14;;;;;;;4.47;4.03;;;12.70;99.90;;;;;;5099860;28;20202;-66
2023/10/28 12:43:41;;;;;;;4.80;4.40;;;12.80;99.90;;;;;;5090858;28;20203;-65
2023/10/28 12:46:08;;;;;;;4.60;4.30;;;12.80;99.90;;;;;;5105697;28;20289;-65
2023/10/28 12:48:35;;;;;;;5.77;5.10;;;12.80;99.90;;;;;;5102869;28;20300;-64